sensor_id;sensor_type;location;lat;lon;timestamp;pressure;altitude;pressure_sealevel;temperature;humidity
71107;BME280;58763;47.982;11.516;2023-03-22T00:00:53;94035.47;;;8.45;73.75
71107;BME280;58763;47.982;11.516;2023-03-22T00:03:19;94030.09;;;8.40;73.56
71107;BME280;58763;47.982;11.516;2023-03-22T00:05:45;94034.97;;;8.32;73.66
71107;BME280;58763;47.982;11.516;2023-03-22T00:08:10;94032.03;;;8.19;75.00
71107;BME280;58763;47.982;11.516;2023-03-22T00:10:38;94033.38;;;8.16;74.88
71107;BME280;58763;47.982;11.516;2023-03-22T00:13:04;94030.19;;;8.04;75.53
71107;BME280;58763;47.982;11.516;2023-03-22T00:15:30;94021.28;;;7.99;75.67
71107;BME280;58763;47.982;11.516;2023-03-22T00:17:56;94018.63;;;7.94;75.76
71107;BME280;58763;47.982;11.516;2023-03-22T00:20:27;94020.53;;;7.88;75.98
71107;BME280;58763;47.982;11.516;2023-03-22T00:22:58;94014.84;;;7.95;76.15
71107;BME280;58763;47.982;11.516;2023-03-22T00:25:24;94010.53;;;7.99;76.34
71107;BME280;58763;47.982;11.516;2023-03-22T00:27:49;94005.94;;;8.04;77.20
71107;BME280;58763;47.982;11.516;2023-03-22T00:30:15;94010.28;;;8.00;77.16
71107;BME280;58763;47.982;11.516;2023-03-22T00:32:41;94009.47;;;7.90;78.19
71107;BME280;58763;47.982;11.516;2023-03-22T00:35:07;94006.78;;;7.90;78.25
71107;BME280;58763;47.982;11.516;2023-03-22T00:37:34;94004.06;;;8.00;77.63
71107;BME280;58763;47.982;11.516;2023-03-22T00:40:12;94001.41;;;7.90;78.27
71107;BME280;58763;47.982;11.516;2023-03-22T00:42:39;93984.94;;;7.96;77.68
71107;BME280;58763;47.982;11.516;2023-03-22T00:45:07;93982.28;;;7.91;77.83
71107;BME280;58763;47.982;11.516;2023-03-22T00:47:33;93967.13;;;8.10;76.49
71107;BME280;58763;47.982;11.516;2023-03-22T00:49:59;93969.25;;;8.23;75.44
71107;BME280;58763;47.982;11.516;2023-03-22T00:52:25;93980.03;;;8.23;74.83
71107;BME280;58763;47.982;11.516;2023-03-22T00:54:51;93977.03;;;8.40;74.47
71107;BME280;58763;47.982;11.516;2023-03-22T00:57:17;93979.66;;;8.50;74.15
71107;BME280;58763;47.982;11.516;2023-03-22T00:59:43;93981.78;;;8.58;74.30
71107;BME280;58763;47.982;11.516;2023-03-22T01:02:09;93978.00;;;8.54;75.00
71107;BME280;58763;47.982;11.516;2023-03-22T01:04:41;93977.78;;;8.46;75.38
71107;BME280;58763;47.982;11.516;2023-03-22T01:07:16;93970.00;;;8.39;75.27
71107;BME280;58763;47.982;11.516;2023-03-22T01:09:43;93974.06;;;8.37;75.12
71107;BME280;58763;47.982;11.516;2023-03-22T01:12:09;93967.06;;;8.35;75.63
71107;BME280;58763;47.982;11.516;2023-03-22T01:14:35;93970.53;;;8.41;75.16
71107;BME280;58763;47.982;11.516;2023-03-22T01:17:01;93965.97;;;8.42;74.64
71107;BME280;58763;47.982;11.516;2023-03-22T01:19:26;93967.72;;;8.61;74.13
71107;BME280;58763;47.982;11.516;2023-03-22T01:21:53;93961.78;;;8.64;74.49
71107;BME280;58763;47.982;11.516;2023-03-22T01:24:19;93955.25;;;8.75;73.55
71107;BME280;58763;47.982;11.516;2023-03-22T01:26:44;93957.94;;;8.75;73.84
71107;BME280;58763;47.982;11.516;2023-03-22T01:29:10;93960.13;;;8.73;73.54
71107;BME280;58763;47.982;11.516;2023-03-22T01:31:35;93961.72;;;8.79;73.50
71107;BME280;58763;47.982;11.516;2023-03-22T01:34:02;93961.44;;;8.76;73.59
71107;BME280;58763;47.982;11.516;2023-03-22T01:36:28;93965.44;;;8.83;73.33
71107;BME280;58763;47.982;11.516;2023-03-22T01:38:53;93953.09;;;8.77;73.18
71107;BME280;58763;47.982;11.516;2023-03-22T01:41:19;93950.09;;;8.84;73.03
71107;BME280;58763;47.982;11.516;2023-03-22T01:46:30;93940.38;;;8.83;72.80
71107;BME280;58763;47.982;11.516;2023-03-22T01:48:57;93938.19;;;8.85;72.55
71107;BME280;58763;47.982;11.516;2023-03-22T01:51:24;93946.09;;;8.76;73.10
71107;BME280;58763;47.982;11.516;2023-03-22T01:53:54;93938.72;;;8.87;72.07
71107;BME280;58763;47.982;11.516;2023-03-22T01:56:22;93938.19;;;8.85;72.09
71107;BME280;58763;47.982;11.516;2023-03-22T01:58:49;93933.88;;;8.89;71.67
71107;BME280;58763;47.982;11.516;2023-03-22T02:01:16;93934.50;;;8.76;71.94
71107;BME280;58763;47.982;11.516;2023-03-22T02:03:52;93940.19;;;8.69;72.53
71107;BME280;58763;47.982;11.516;2023-03-22T02:06:19;93935.88;;;8.68;72.59
71107;BME280;58763;47.982;11.516;2023-03-22T02:09:09;93941.31;;;8.63;72.67
71107;BME280;58763;47.982;11.516;2023-03-22T02:11:41;93937.28;;;8.61;73.06
71107;BME280;58763;47.982;11.516;2023-03-22T02:17:02;93946.97;;;8.62;72.35
71107;BME280;58763;47.982;11.516;2023-03-22T02:27:55;93943.97;;;8.68;71.33
71107;BME280;58763;47.982;11.516;2023-03-22T02:33:41;93941.59;;;8.62;71.55
71107;BME280;58763;47.982;11.516;2023-03-22T02:36:44;93939.47;;;8.59;71.51
71107;BME280;58763;47.982;11.516;2023-03-22T02:44:54;93924.00;;;8.30;71.54
71107;BME280;58763;47.982;11.516;2023-03-22T02:50:24;93914.44;;;7.89;73.89
71107;BME280;58763;47.982;11.516;2023-03-22T02:56:09;93923.94;;;7.66;74.88
71107;BME280;58763;47.982;11.516;2023-03-22T02:58:43;93923.41;;;7.64;75.54
71107;BME280;58763;47.982;11.516;2023-03-22T03:01:15;93925.56;;;7.68;75.22
71107;BME280;58763;47.982;11.516;2023-03-22T03:03:45;93930.38;;;7.76;74.70
71107;BME280;58763;47.982;11.516;2023-03-22T03:06:16;93943.00;;;7.80;74.31
71107;BME280;58763;47.982;11.516;2023-03-22T03:08:45;93941.41;;;7.79;74.24
71107;BME280;58763;47.982;11.516;2023-03-22T03:11:15;93942.44;;;7.93;74.07
71107;BME280;58763;47.982;11.516;2023-03-22T03:13:41;93943.78;;;7.96;72.78
71107;BME280;58763;47.982;11.516;2023-03-22T03:16:10;93938.16;;;7.87;72.94
71107;BME280;58763;47.982;11.516;2023-03-22T03:18:41;93940.53;;;7.94;72.91
71107;BME280;58763;47.982;11.516;2023-03-22T03:24:26;93941.66;;;7.88;72.80
71107;BME280;58763;47.982;11.516;2023-03-22T03:34:58;93942.19;;;7.85;72.98
71107;BME280;58763;47.982;11.516;2023-03-22T03:37:45;93948.94;;;7.77;73.53
71107;BME280;58763;47.982;11.516;2023-03-22T03:40:17;93949.50;;;7.64;73.63
71107;BME280;58763;47.982;11.516;2023-03-22T03:42:48;93954.59;;;7.81;73.23
71107;BME280;58763;47.982;11.516;2023-03-22T03:45:16;93958.63;;;7.78;73.17
71107;BME280;58763;47.982;11.516;2023-03-22T03:47:44;93947.91;;;7.63;72.98
71107;BME280;58763;47.982;11.516;2023-03-22T03:50:13;93945.53;;;7.41;73.91
71107;BME280;58763;47.982;11.516;2023-03-22T03:52:40;93942.84;;;7.31;74.98
71107;BME280;58763;47.982;11.516;2023-03-22T03:55:06;93951.44;;;7.28;75.20
71107;BME280;58763;47.982;11.516;2023-03-22T03:57:32;93948.25;;;7.11;75.83
71107;BME280;58763;47.982;11.516;2023-03-22T03:59:57;93947.97;;;7.13;75.43
71107;BME280;58763;47.982;11.516;2023-03-22T04:02:23;93944.22;;;7.09;75.13
71107;BME280;58763;47.982;11.516;2023-03-22T04:04:48;93947.19;;;7.02;75.91
71107;BME280;58763;47.982;11.516;2023-03-22T04:07:14;93944.22;;;6.93;76.04
71107;BME280;58763;47.982;11.516;2023-03-22T04:09:40;93938.81;;;6.88;76.55
71107;BME280;58763;47.982;11.516;2023-03-22T04:12:06;93945.00;;;6.84;76.94
71107;BME280;58763;47.982;11.516;2023-03-22T04:14:34;93945.28;;;6.82;76.26
71107;BME280;58763;47.982;11.516;2023-03-22T04:17:00;93940.72;;;6.83;76.39
71107;BME280;58763;47.982;11.516;2023-03-22T04:19:25;93939.38;;;6.60;77.48
71107;BME280;58763;47.982;11.516;2023-03-22T04:21:51;93941.22;;;6.70;77.52
71107;BME280;58763;47.982;11.516;2023-03-22T04:24:18;93946.38;;;6.76;77.16
71107;BME280;58763;47.982;11.516;2023-03-22T04:26:46;93937.75;;;6.59;77.63
71107;BME280;58763;47.982;11.516;2023-03-22T04:29:11;93944.44;;;6.57;77.64
71107;BME280;58763;47.982;11.516;2023-03-22T04:31:37;93940.16;;;6.56;77.29
71107;BME280;58763;47.982;11.516;2023-03-22T04:34:04;93941.50;;;6.53;77.14
71107;BME280;58763;47.982;11.516;2023-03-22T04:36:31;93938.81;;;6.53;77.13
71107;BME280;58763;47.982;11.516;2023-03-22T04:39:06;93937.72;;;6.54;77.06
71107;BME280;58763;47.982;11.516;2023-03-22T04:41:33;93936.69;;;6.60;77.04
71107;BME280;58763;47.982;11.516;2023-03-22T04:43:59;93936.91;;;6.54;77.05
71107;BME280;58763;47.982;11.516;2023-03-22T04:46:29;93931.00;;;6.47;77.29
71107;BME280;58763;47.982;11.516;2023-03-22T04:48:55;93929.91;;;6.38;78.05
71107;BME280;58763;47.982;11.516;2023-03-22T04:51:21;93929.94;;;6.48;77.61
71107;BME280;58763;47.982;11.516;2023-03-22T04:53:47;93926.75;;;6.56;77.35
71107;BME280;58763;47.982;11.516;2023-03-22T04:56:14;93929.41;;;6.56;78.20
71107;BME280;58763;47.982;11.516;2023-03-22T04:58:41;93932.66;;;6.58;77.96
71107;BME280;58763;47.982;11.516;2023-03-22T05:01:10;93929.69;;;6.69;78.28
71107;BME280;58763;47.982;11.516;2023-03-22T05:03:36;93934.25;;;6.64;78.10
71107;BME280;58763;47.982;11.516;2023-03-22T05:06:04;93930.47;;;6.70;78.33
71107;BME280;58763;47.982;11.516;2023-03-22T05:08:33;93938.53;;;6.70;78.57
71107;BME280;58763;47.982;11.516;2023-03-22T05:11:04;93938.03;;;6.73;78.64
71107;BME280;58763;47.982;11.516;2023-03-22T05:13:30;93933.47;;;6.78;78.69
71107;BME280;58763;47.982;11.516;2023-03-22T05:15:57;93932.13;;;6.76;78.38
71107;BME280;58763;47.982;11.516;2023-03-22T05:18:25;93932.94;;;6.76;78.29
71107;BME280;58763;47.982;11.516;2023-03-22T05:20:54;93948.78;;;6.78;77.91
71107;BME280;58763;47.982;11.516;2023-03-22T05:23:20;93932.41;;;6.74;78.40
71107;BME280;58763;47.982;11.516;2023-03-22T05:25:47;93941.78;;;6.67;78.18
71107;BME280;58763;47.982;11.516;2023-03-22T05:28:14;93939.66;;;6.74;78.41
71107;BME280;58763;47.982;11.516;2023-03-22T05:30:41;93940.44;;;6.84;77.76
71107;BME280;58763;47.982;11.516;2023-03-22T05:33:07;93938.56;;;6.85;77.22
71107;BME280;58763;47.982;11.516;2023-03-22T05:35:35;93944.75;;;6.80;76.86
71107;BME280;58763;47.982;11.516;2023-03-22T05:38:00;93944.47;;;6.77;76.80
71107;BME280;58763;47.982;11.516;2023-03-22T05:40:27;93943.41;;;6.83;77.17
71107;BME280;58763;47.982;11.516;2023-03-22T05:42:53;93948.78;;;6.98;76.74
71107;BME280;58763;47.982;11.516;2023-03-22T05:45:19;93947.19;;;6.92;76.31
71107;BME280;58763;47.982;11.516;2023-03-22T05:47:45;93949.03;;;6.86;76.94
71107;BME280;58763;47.982;11.516;2023-03-22T05:50:13;93948.50;;;6.89;77.83
71107;BME280;58763;47.982;11.516;2023-03-22T05:52:40;93953.06;;;6.89;77.80
71107;BME280;58763;47.982;11.516;2023-03-22T05:55:07;93955.78;;;6.99;77.65
71107;BME280;58763;47.982;11.516;2023-03-22T05:57:33;93950.94;;;6.91;77.58
71107;BME280;58763;47.982;11.516;2023-03-22T06:00:01;93949.31;;;6.75;78.74
71107;BME280;58763;47.982;11.516;2023-03-22T06:02:27;93949.84;;;6.77;78.19
71107;BME280;58763;47.982;11.516;2023-03-22T06:04:52;93954.44;;;6.76;78.38
71107;BME280;58763;47.982;11.516;2023-03-22T06:07:18;93949.84;;;6.82;78.62
71107;BME280;58763;47.982;11.516;2023-03-22T06:09:44;93947.44;;;6.80;78.72
71107;BME280;58763;47.982;11.516;2023-03-22T06:12:11;93950.94;;;6.86;78.93
71107;BME280;58763;47.982;11.516;2023-03-22T06:14:36;93958.44;;;6.84;79.03
71107;BME280;58763;47.982;11.516;2023-03-22T06:17:02;93959.00;;;6.86;78.76
71107;BME280;58763;47.982;11.516;2023-03-22T06:19:28;93971.09;;;6.83;79.50
71107;BME280;58763;47.982;11.516;2023-03-22T06:21:54;93969.50;;;6.92;79.81
71107;BME280;58763;47.982;11.516;2023-03-22T06:24:19;93963.84;;;6.94;79.67
71107;BME280;58763;47.982;11.516;2023-03-22T06:26:45;93966.53;;;6.99;79.77
71107;BME280;58763;47.982;11.516;2023-03-22T06:29:11;93967.06;;;7.11;79.62
71107;BME280;58763;47.982;11.516;2023-03-22T06:31:37;93964.13;;;7.23;79.12
71107;BME280;58763;47.982;11.516;2023-03-22T06:34:04;93961.44;;;7.28;77.95
71107;BME280;58763;47.982;11.516;2023-03-22T06:36:30;93955.75;;;7.29;77.41
71107;BME280;58763;47.982;11.516;2023-03-22T06:38:56;93959.53;;;7.33;76.78
71107;BME280;58763;47.982;11.516;2023-03-22T06:41:23;93961.16;;;7.29;77.00
71107;BME280;58763;47.982;11.516;2023-03-22T06:43:49;93959.53;;;7.28;76.62
71107;BME280;58763;47.982;11.516;2023-03-22T06:46:14;93959.28;;;7.30;77.00
71107;BME280;58763;47.982;11.516;2023-03-22T06:48:40;93964.09;;;7.38;77.15
71107;BME280;58763;47.982;11.516;2023-03-22T06:51:06;93960.56;;;7.47;76.68
71107;BME280;58763;47.982;11.516;2023-03-22T06:53:31;93954.66;;;7.55;76.26
71107;BME280;58763;47.982;11.516;2023-03-22T06:55:57;93964.31;;;7.66;75.97
71107;BME280;58763;47.982;11.516;2023-03-22T06:58:23;93961.34;;;7.68;75.86
71107;BME280;58763;47.982;11.516;2023-03-22T07:00:48;93962.66;;;7.76;74.46
71107;BME280;58763;47.982;11.516;2023-03-22T07:03:14;93958.63;;;7.83;74.63
71107;BME280;58763;47.982;11.516;2023-03-22T07:05:40;93957.00;;;7.82;75.28
71107;BME280;58763;47.982;11.516;2023-03-22T07:08:05;93958.28;;;8.05;74.96
71107;BME280;58763;47.982;11.516;2023-03-22T07:10:31;93952.84;;;8.10;74.88
71107;BME280;58763;47.982;11.516;2023-03-22T07:12:57;93955.78;;;8.23;74.54
71107;BME280;58763;47.982;11.516;2023-03-22T07:15:22;93958.19;;;8.35;73.29
71107;BME280;58763;47.982;11.516;2023-03-22T07:17:50;93956.00;;;8.42;73.32
71107;BME280;58763;47.982;11.516;2023-03-22T07:20:17;93954.88;;;8.48;73.62
71107;BME280;58763;47.982;11.516;2023-03-22T07:22:43;93952.13;;;8.58;72.56
71107;BME280;58763;47.982;11.516;2023-03-22T07:25:08;93953.16;;;8.67;73.38
71107;BME280;58763;47.982;11.516;2023-03-22T07:27:34;93953.91;;;8.73;71.98
71107;BME280;58763;47.982;11.516;2023-03-22T07:30:01;93952.53;;;8.80;73.09
71107;BME280;58763;47.982;11.516;2023-03-22T07:32:27;93955.94;;;8.96;72.37
71107;BME280;58763;47.982;11.516;2023-03-22T07:34:52;93960.41;;;9.05;71.99
71107;BME280;58763;47.982;11.516;2023-03-22T07:37:19;93958.75;;;9.15;71.21
71107;BME280;58763;47.982;11.516;2023-03-22T07:39:45;93953.25;;;9.25;70.85
71107;BME280;58763;47.982;11.516;2023-03-22T07:42:10;93959.13;;;9.32;70.86
71107;BME280;58763;47.982;11.516;2023-03-22T07:44:36;93959.63;;;9.39;71.41
71107;BME280;58763;47.982;11.516;2023-03-22T07:47:02;93961.09;;;9.55;72.28
71107;BME280;58763;47.982;11.516;2023-03-22T07:49:27;93960.91;;;9.75;71.05
71107;BME280;58763;47.982;11.516;2023-03-22T07:51:54;93963.94;;;9.92;69.94
71107;BME280;58763;47.982;11.516;2023-03-22T07:54:20;93954.06;;;10.06;69.28
71107;BME280;58763;47.982;11.516;2023-03-22T07:56:45;93964.75;;;10.21;67.27
71107;BME280;58763;47.982;11.516;2023-03-22T07:59:13;93962.97;;;10.35;67.05
71107;BME280;58763;47.982;11.516;2023-03-22T08:01:39;93958.16;;;10.51;66.69
71107;BME280;58763;47.982;11.516;2023-03-22T08:04:04;93963.88;;;10.68;64.32
71107;BME280;58763;47.982;11.516;2023-03-22T08:06:30;93963.09;;;10.86;63.81
71107;BME280;58763;47.982;11.516;2023-03-22T08:08:57;93971.25;;;11.19;63.43
71107;BME280;58763;47.982;11.516;2023-03-22T08:11:23;93966.94;;;11.36;64.03
71107;BME280;58763;47.982;11.516;2023-03-22T08:13:49;93962.69;;;11.62;63.50
71107;BME280;58763;47.982;11.516;2023-03-22T08:16:14;93968.13;;;11.95;62.28
71107;BME280;58763;47.982;11.516;2023-03-22T08:18:40;93973.25;;;12.23;60.96
71107;BME280;58763;47.982;11.516;2023-03-22T08:21:06;93961.78;;;12.67;60.66
71107;BME280;58763;47.982;11.516;2023-03-22T08:23:32;93963.47;;;12.90;58.36
71107;BME280;58763;47.982;11.516;2023-03-22T08:25:57;93960.03;;;12.98;57.70
71107;BME280;58763;47.982;11.516;2023-03-22T08:28:23;93964.25;;;13.40;57.32
71107;BME280;58763;47.982;11.516;2023-03-22T08:30:50;93964.81;;;13.73;58.92
71107;BME280;58763;47.982;11.516;2023-03-22T08:33:15;93966.13;;;13.84;57.02
71107;BME280;58763;47.982;11.516;2023-03-22T08:35:42;93967.16;;;13.88;52.04
71107;BME280;58763;47.982;11.516;2023-03-22T08:38:09;93964.50;;;14.05;53.57
71107;BME280;58763;47.982;11.516;2023-03-22T08:40:35;93959.28;;;14.17;52.11
71107;BME280;58763;47.982;11.516;2023-03-22T08:43:00;93962.16;;;14.12;52.46
71107;BME280;58763;47.982;11.516;2023-03-22T08:45:26;93964.53;;;14.36;50.34
71107;BME280;58763;47.982;11.516;2023-03-22T08:47:53;93961.69;;;14.49;46.94
71107;BME280;58763;47.982;11.516;2023-03-22T08:50:19;93951.00;;;14.53;48.30
71107;BME280;58763;47.982;11.516;2023-03-22T08:52:44;93953.56;;;14.58;49.31
71107;BME280;58763;47.982;11.516;2023-03-22T08:55:11;93952.66;;;14.80;47.49
71107;BME280;58763;47.982;11.516;2023-03-22T08:57:36;93949.19;;;15.05;48.24
71107;BME280;58763;47.982;11.516;2023-03-22T09:00:04;93945.81;;;15.08;49.08
71107;BME280;58763;47.982;11.516;2023-03-22T09:02:31;93949.53;;;15.38;45.79
71107;BME280;58763;47.982;11.516;2023-03-22T09:04:57;93949.06;;;15.53;47.72
71107;BME280;58763;47.982;11.516;2023-03-22T09:07:23;93941.34;;;15.29;45.13
71107;BME280;58763;47.982;11.516;2023-03-22T09:09:49;93939.44;;;15.21;44.90
71107;BME280;58763;47.982;11.516;2023-03-22T09:12:16;93936.38;;;15.14;44.43
71107;BME280;58763;47.982;11.516;2023-03-22T09:14:41;93939.25;;;15.00;45.35
71107;BME280;58763;47.982;11.516;2023-03-22T09:17:07;93935.25;;;15.15;46.32
71107;BME280;58763;47.982;11.516;2023-03-22T09:19:32;93937.19;;;15.23;45.76
71107;BME280;58763;47.982;11.516;2023-03-22T09:21:58;93942.31;;;15.24;46.10
71107;BME280;58763;47.982;11.516;2023-03-22T09:24:24;93933.19;;;15.38;44.97
71107;BME280;58763;47.982;11.516;2023-03-22T09:26:49;93936.09;;;15.58;45.41
71107;BME280;58763;47.982;11.516;2023-03-22T09:29:16;93935.88;;;15.80;47.04
71107;BME280;58763;47.982;11.516;2023-03-22T09:31:41;93937.47;;;15.90;47.21
71107;BME280;58763;47.982;11.516;2023-03-22T09:34:07;93930.28;;;15.77;47.10
71107;BME280;58763;47.982;11.516;2023-03-22T09:36:33;93926.91;;;15.80;46.64
71107;BME280;58763;47.982;11.516;2023-03-22T09:38:59;93925.47;;;15.82;45.39
71107;BME280;58763;47.982;11.516;2023-03-22T09:44:02;93918.88;;;15.83;45.51
71107;BME280;58763;47.982;11.516;2023-03-22T09:46:33;93914.06;;;15.89;45.19
71107;BME280;58763;47.982;11.516;2023-03-22T09:49:04;93915.50;;;15.95;43.14
71107;BME280;58763;47.982;11.516;2023-03-22T09:54:13;93903.72;;;16.12;42.48
71107;BME280;58763;47.982;11.516;2023-03-22T09:56:39;93902.28;;;16.06;43.50
71107;BME280;58763;47.982;11.516;2023-03-22T09:59:16;93904.59;;;15.95;43.19
71107;BME280;58763;47.982;11.516;2023-03-22T10:01:55;93902.97;;;15.94;42.79
71107;BME280;58763;47.982;11.516;2023-03-22T10:04:26;93900.25;;;16.03;43.81
71107;BME280;58763;47.982;11.516;2023-03-22T10:07:15;93897.97;;;16.05;42.71
71107;BME280;58763;47.982;11.516;2023-03-22T10:15:05;93890.06;;;16.20;41.57
71107;BME280;58763;47.982;11.516;2023-03-22T10:17:35;93878.88;;;16.42;42.71
71107;BME280;58763;47.982;11.516;2023-03-22T10:20:12;93882.69;;;16.50;42.08
71107;BME280;58763;47.982;11.516;2023-03-22T10:22:44;93873.97;;;16.65;42.16
71107;BME280;58763;47.982;11.516;2023-03-22T10:25:17;93872.81;;;16.95;42.15
71107;BME280;58763;47.982;11.516;2023-03-22T10:27:45;93874.94;;;17.10;40.99
71107;BME280;58763;47.982;11.516;2023-03-22T10:30:24;93868.00;;;17.13;41.00
71107;BME280;58763;47.982;11.516;2023-03-22T10:35:22;93863.69;;;16.91;40.98
71107;BME280;58763;47.982;11.516;2023-03-22T10:37:48;93869.72;;;16.76;41.46
71107;BME280;58763;47.982;11.516;2023-03-22T10:40:19;93859.53;;;16.85;39.74
71107;BME280;58763;47.982;11.516;2023-03-22T10:42:55;93858.06;;;16.67;39.15
71107;BME280;58763;47.982;11.516;2023-03-22T10:45:23;93860.53;;;16.81;40.29
71107;BME280;58763;47.982;11.516;2023-03-22T10:47:55;93851.56;;;16.80;39.23
71107;BME280;58763;47.982;11.516;2023-03-22T10:50:33;93857.34;;;17.20;40.39
71107;BME280;58763;47.982;11.516;2023-03-22T10:55:52;93858.19;;;17.33;40.14
71107;BME280;58763;47.982;11.516;2023-03-22T10:58:20;93858.81;;;17.38;41.41
71107;BME280;58763;47.982;11.516;2023-03-22T11:00:51;93856.94;;;17.09;39.78
71107;BME280;58763;47.982;11.516;2023-03-22T11:03:40;93851.22;;;17.23;39.14
71107;BME280;58763;47.982;11.516;2023-03-22T11:06:08;93846.00;;;17.30;39.23
71107;BME280;58763;47.982;11.516;2023-03-22T11:11:46;93848.41;;;17.32;39.18
71107;BME280;58763;47.982;11.516;2023-03-22T11:14:01;93846.25;;;17.58;39.09
71107;BME280;58763;47.982;11.516;2023-03-22T11:16:29;93844.25;;;17.79;39.21
71107;BME280;58763;47.982;11.516;2023-03-22T11:18:57;93850.50;;;17.67;37.86
71107;BME280;58763;47.982;11.516;2023-03-22T11:21:30;93850.41;;;17.43;37.26
71107;BME280;58763;47.982;11.516;2023-03-22T11:23:59;93848.06;;;17.54;38.46
71107;BME280;58763;47.982;11.516;2023-03-22T11:26:29;93837.97;;;17.66;37.93
71107;BME280;58763;47.982;11.516;2023-03-22T11:29:15;93833.63;;;18.10;37.08
71107;BME280;58763;47.982;11.516;2023-03-22T11:31:58;93837.94;;;18.11;37.44
71107;BME280;58763;47.982;11.516;2023-03-22T11:34:27;93834.31;;;18.31;39.30
71107;BME280;58763;47.982;11.516;2023-03-22T11:36:53;93840.72;;;18.47;37.28
71107;BME280;58763;47.982;11.516;2023-03-22T11:39:27;93829.88;;;18.75;36.99
71107;BME280;58763;47.982;11.516;2023-03-22T11:41:56;93826.56;;;18.70;36.56
71107;BME280;58763;47.982;11.516;2023-03-22T11:44:25;93823.13;;;18.85;36.63
71107;BME280;58763;47.982;11.516;2023-03-22T11:46:57;93820.72;;;18.83;36.75
71107;BME280;58763;47.982;11.516;2023-03-22T11:49:45;93816.75;;;18.81;36.83
71107;BME280;58763;47.982;11.516;2023-03-22T11:52:16;93828.00;;;18.91;36.40
71107;BME280;58763;47.982;11.516;2023-03-22T11:54:42;93818.59;;;19.04;35.59
71107;BME280;58763;47.982;11.516;2023-03-22T11:57:24;93810.91;;;19.22;36.99
71107;BME280;58763;47.982;11.516;2023-03-22T12:02:28;93806.88;;;18.92;36.34
71107;BME280;58763;47.982;11.516;2023-03-22T12:05:02;93802.03;;;19.13;35.28
71107;BME280;58763;47.982;11.516;2023-03-22T12:07:31;93800.38;;;19.24;35.38
71107;BME280;58763;47.982;11.516;2023-03-22T12:10:05;93795.09;;;19.43;36.29
71107;BME280;58763;47.982;11.516;2023-03-22T12:12:51;93801.34;;;19.71;36.30
71107;BME280;58763;47.982;11.516;2023-03-22T12:15:22;93795.97;;;19.90;36.44
71107;BME280;58763;47.982;11.516;2023-03-22T12:18:16;93793.56;;;19.89;35.49
71107;BME280;58763;47.982;11.516;2023-03-22T12:20:57;93787.56;;;19.83;33.59
71107;BME280;58763;47.982;11.516;2023-03-22T12:23:26;93795.38;;;19.97;35.18
71107;BME280;58763;47.982;11.516;2023-03-22T12:26:04;93791.50;;;19.70;36.31
71107;BME280;58763;47.982;11.516;2023-03-22T12:28:52;93776.03;;;19.78;34.38
71107;BME280;58763;47.982;11.516;2023-03-22T12:33:59;93770.28;;;20.14;34.26
71107;BME280;58763;47.982;11.516;2023-03-22T12:36:33;93770.94;;;20.39;34.64
71107;BME280;58763;47.982;11.516;2023-03-22T12:39:05;93759.84;;;20.20;35.15
71107;BME280;58763;47.982;11.516;2023-03-22T12:41:35;93750.81;;;20.19;35.44
71107;BME280;58763;47.982;11.516;2023-03-22T12:44:15;93756.50;;;20.42;34.33
71107;BME280;58763;47.982;11.516;2023-03-22T12:47:00;93749.19;;;20.49;33.62
71107;BME280;58763;47.982;11.516;2023-03-22T12:49:36;93750.13;;;20.73;34.51
71107;BME280;58763;47.982;11.516;2023-03-22T12:52:46;93741.59;;;20.78;32.22
71107;BME280;58763;47.982;11.516;2023-03-22T12:55:21;93739.66;;;20.78;32.44
71107;BME280;58763;47.982;11.516;2023-03-22T12:57:49;93732.69;;;20.84;31.12
71107;BME280;58763;47.982;11.516;2023-03-22T13:00:21;93724.75;;;20.79;31.76
71107;BME280;58763;47.982;11.516;2023-03-22T13:05:40;93715.47;;;20.68;31.08
71107;BME280;58763;47.982;11.516;2023-03-22T13:08:06;93718.63;;;20.86;32.58
71107;BME280;58763;47.982;11.516;2023-03-22T13:15:34;93705.13;;;20.27;32.93
71107;BME280;58763;47.982;11.516;2023-03-22T13:18:01;93701.09;;;20.40;32.51
71107;BME280;58763;47.982;11.516;2023-03-22T13:20:29;93697.97;;;20.57;31.14
71107;BME280;58763;47.982;11.516;2023-03-22T13:23:01;93688.59;;;20.77;33.51
71107;BME280;58763;47.982;11.516;2023-03-22T13:25:34;93697.63;;;20.97;33.50
71107;BME280;58763;47.982;11.516;2023-03-22T13:28:03;93705.69;;;21.05;33.88
71107;BME280;58763;47.982;11.516;2023-03-22T13:30:51;93688.91;;;20.72;31.91
71107;BME280;58763;47.982;11.516;2023-03-22T13:33:22;93701.31;;;20.66;32.11
71107;BME280;58763;47.982;11.516;2023-03-22T13:38:24;93691.03;;;20.28;32.77
71107;BME280;58763;47.982;11.516;2023-03-22T13:46:10;93692.34;;;20.69;33.15
71107;BME280;58763;47.982;11.516;2023-03-22T13:48:51;93693.88;;;20.86;31.91
71107;BME280;58763;47.982;11.516;2023-03-22T14:02:26;93688.00;;;20.87;32.74
71107;BME280;58763;47.982;11.516;2023-03-22T14:05:09;93673.41;;;20.64;31.06
71107;BME280;58763;47.982;11.516;2023-03-22T14:07:45;93685.38;;;20.37;32.68
71107;BME280;58763;47.982;11.516;2023-03-22T14:10:20;93684.88;;;20.50;32.42
71107;BME280;58763;47.982;11.516;2023-03-22T14:12:51;93689.44;;;20.62;31.50
71107;BME280;58763;47.982;11.516;2023-03-22T14:15:23;93676.56;;;20.66;33.16
71107;BME280;58763;47.982;11.516;2023-03-22T14:17:58;93679.19;;;20.59;32.19
71107;BME280;58763;47.982;11.516;2023-03-22T14:20:30;93679.44;;;20.54;32.55
71107;BME280;58763;47.982;11.516;2023-03-22T14:22:59;93679.06;;;20.36;33.09
71107;BME280;58763;47.982;11.516;2023-03-22T14:25:29;93685.84;;;20.23;33.53
71107;BME280;58763;47.982;11.516;2023-03-22T14:27:56;93677.06;;;20.18;32.61
71107;BME280;58763;47.982;11.516;2023-03-22T14:32:54;93666.53;;;20.54;33.93
71107;BME280;58763;47.982;11.516;2023-03-22T14:35:53;93668.78;;;20.87;34.17
71107;BME280;58763;47.982;11.516;2023-03-22T14:38:22;93662.16;;;21.07;32.41